createdAt,value
2019-01-20T00:02:10.560Z,134.87
2019-01-20T00:04:40.836Z,132.20
2019-01-20T00:07:12.121Z,146.90
2019-01-20T00:09:43.453Z,134.33
2019-01-20T00:12:13.733Z,149.70
2019-01-20T00:14:44.035Z,127.67
2019-01-20T00:17:14.295Z,135.00
2019-01-20T00:19:44.568Z,126.57
2019-01-20T00:22:14.869Z,135.87
2019-01-20T00:24:45.258Z,132.67
2019-01-20T00:27:15.554Z,141.30
2019-01-20T00:29:45.815Z,142.77
2019-01-20T00:32:16.125Z,124.73
2019-01-20T00:34:46.370Z,141.67
2019-01-20T00:37:16.686Z,133.47
2019-01-20T00:39:47.071Z,122.83
2019-01-20T00:42:17.394Z,129.47
2019-01-20T00:44:47.778Z,129.17
2019-01-20T00:47:18.057Z,128.40
2019-01-20T00:49:48.368Z,126.63
2019-01-20T00:52:18.705Z,133.57
2019-01-20T00:54:48.990Z,119.23
2019-01-20T00:57:19.302Z,127.60
2019-01-20T00:59:49.604Z,134.63
2019-01-20T01:02:19.923Z,128.57
2019-01-20T01:04:50.220Z,129.67
2019-01-20T01:07:20.578Z,141.20
2019-01-20T01:09:50.906Z,129.17
2019-01-20T01:12:21.298Z,137.07
2019-01-20T01:14:51.658Z,134.50
2019-01-20T01:17:21.944Z,147.37
2019-01-20T01:19:52.224Z,137.63
2019-01-20T01:22:22.542Z,126.93
2019-01-20T01:24:52.772Z,133.40
2019-01-20T01:27:23.115Z,135.07
2019-01-20T01:29:53.362Z,123.50
2019-01-20T01:32:23.684Z,135.67
2019-01-20T01:34:53.978Z,136.63
2019-01-20T01:37:24.288Z,120.50
2019-01-20T01:39:54.584Z,129.43
2019-01-20T01:42:24.824Z,136.60
2019-01-20T01:44:55.102Z,132.07
2019-01-20T01:47:25.338Z,133.37
2019-01-20T01:49:55.634Z,155.57
2019-01-20T01:52:25.954Z,144.40
2019-01-20T01:54:56.253Z,139.00
2019-01-20T01:57:26.548Z,134.10
2019-01-20T01:59:56.844Z,133.07
2019-01-20T02:02:27.389Z,140.27
2019-01-20T02:04:57.651Z,141.17
2019-01-20T02:07:27.956Z,154.90
2019-01-20T02:09:58.199Z,141.00
2019-01-20T02:12:28.432Z,160.03
2019-01-20T02:14:58.769Z,141.87
2019-01-20T02:17:28.980Z,139.33
2019-01-20T02:19:59.579Z,149.73
2019-01-20T02:22:29.924Z,171.90
2019-01-20T02:25:00.284Z,177.60
2019-01-20T02:27:30.510Z,175.53
2019-01-20T02:30:00.777Z,182.27
2019-01-20T02:32:31.260Z,178.10
2019-01-20T02:35:01.526Z,193.90
2019-01-20T02:37:31.814Z,181.93
2019-01-20T02:40:02.767Z,186.93
2019-01-20T02:42:33.056Z,185.93
2019-01-20T02:45:03.579Z,190.70
2019-01-20T02:47:34.158Z,205.87
2019-01-20T02:50:05.034Z,191.47
2019-01-20T02:52:35.361Z,185.67
2019-01-20T02:55:06.470Z,181.43
2019-01-20T02:57:36.823Z,182.27
2019-01-20T03:00:16.088Z,183.93
2019-01-20T03:02:46.384Z,184.33
2019-01-20T03:05:17.902Z,181.43
2019-01-20T03:07:48.320Z,177.67
2019-01-20T03:10:18.631Z,181.83
2019-01-20T03:12:48.974Z,182.40
2019-01-20T03:15:19.351Z,188.17
2019-01-20T03:17:49.661Z,174.23
2019-01-20T03:20:21.678Z,155.73
2019-01-20T03:22:52.968Z,174.37
2019-01-20T03:25:24.228Z,192.20
2019-01-20T03:27:54.569Z,195.77
2019-01-20T03:30:24.877Z,191.93
2019-01-20T03:32:56.177Z,194.27
2019-01-20T03:35:27.115Z,199.33
2019-01-20T03:37:57.392Z,187.23
2019-01-20T03:40:27.696Z,191.03
2019-01-20T03:42:58.088Z,190.27
2019-01-20T03:45:28.407Z,196.77
2019-01-20T03:47:58.731Z,190.50
2019-01-20T03:50:29.022Z,189.67
2019-01-20T03:53:06.906Z,172.70
2019-01-20T03:55:37.226Z,175.40
2019-01-20T03:58:07.589Z,163.63
2019-01-20T04:00:37.860Z,149.93
2019-01-20T04:03:08.388Z,152.80
2019-01-20T04:05:38.651Z,157.67
2019-01-20T04:08:08.956Z,172.07
2019-01-20T04:10:39.236Z,160.37
2019-01-20T04:13:09.565Z,171.47
2019-01-20T04:15:39.840Z,171.53
2019-01-20T04:18:10.335Z,165.90
2019-01-20T04:20:40.662Z,162.90
2019-01-20T04:23:10.960Z,158.90
2019-01-20T04:25:41.196Z,154.90
2019-01-20T04:28:11.639Z,159.03
2019-01-20T04:30:41.882Z,169.63
2019-01-20T04:33:12.278Z,175.30
2019-01-20T04:35:42.472Z,196.87
2019-01-20T04:38:12.774Z,214.20
2019-01-20T04:40:42.976Z,200.07
2019-01-20T04:43:13.368Z,204.97
2019-01-20T04:45:43.677Z,227.30
2019-01-20T04:48:14.143Z,218.13
2019-01-20T04:50:58.425Z,211.57
2019-01-20T04:53:29.074Z,209.73
2019-01-20T04:55:59.312Z,205.03
2019-01-20T04:58:29.823Z,221.80
2019-01-20T05:01:00.090Z,212.90
2019-01-20T05:03:30.468Z,218.30
2019-01-20T05:06:01.853Z,233.73
2019-01-20T05:08:32.166Z,227.07
2019-01-20T05:11:02.420Z,211.40
2019-01-20T05:13:32.652Z,226.27
2019-01-20T05:16:02.933Z,219.80
2019-01-20T05:18:33.203Z,233.27
2019-01-20T05:23:43.914Z,232.97
2019-01-20T05:29:07.844Z,237.33
2019-01-20T05:31:43.942Z,252.87
2019-01-20T05:34:14.271Z,237.30
2019-01-20T05:36:44.454Z,242.50
2019-01-20T05:39:14.807Z,237.97
2019-01-20T05:41:45.052Z,232.53
2019-01-20T05:44:15.355Z,231.43
2019-01-20T05:46:51.014Z,226.97
2019-01-20T05:49:21.468Z,232.03
2019-01-20T05:51:51.735Z,236.90
2019-01-20T05:54:22.091Z,242.10
2019-01-20T05:56:52.423Z,238.17
2019-01-20T05:59:22.808Z,252.53
2019-01-20T06:01:53.117Z,246.77
2019-01-20T06:04:23.425Z,223.90
2019-01-20T06:06:53.730Z,226.53
2019-01-20T06:09:24.001Z,243.20
2019-01-20T06:11:54.290Z,240.37
2019-01-20T06:14:36.356Z,237.17
2019-01-20T06:17:06.624Z,231.57
2019-01-20T06:19:36.943Z,231.83
2019-01-20T06:22:07.221Z,240.23
2019-01-20T06:24:37.569Z,240.93
2019-01-20T06:27:07.818Z,231.33
2019-01-20T06:29:38.071Z,213.23
2019-01-20T06:32:08.405Z,223.00
2019-01-20T06:34:38.767Z,218.13
2019-01-20T06:37:09.277Z,223.83
2019-01-20T06:39:39.635Z,223.93
2019-01-20T06:42:09.931Z,224.30
2019-01-20T06:44:40.099Z,199.10
2019-01-20T06:47:10.419Z,224.83
2019-01-20T06:49:40.719Z,202.70
2019-01-20T06:52:11.044Z,179.57
2019-01-20T06:54:41.333Z,213.47
2019-01-20T06:57:11.600Z,222.50
2019-01-20T06:59:41.875Z,233.10
2019-01-20T07:02:12.224Z,182.57
2019-01-20T07:04:42.575Z,175.77
2019-01-20T07:07:12.811Z,178.23
2019-01-20T07:09:43.139Z,185.87
2019-01-20T07:12:15.876Z,214.20
2019-01-20T07:14:46.067Z,202.63
2019-01-20T07:17:16.313Z,225.60
2019-01-20T07:19:46.611Z,188.43
2019-01-20T07:22:17.198Z,234.17
2019-01-20T07:24:47.493Z,171.03
2019-01-20T07:27:17.927Z,230.27
2019-01-20T07:29:48.190Z,224.60
2019-01-20T07:32:18.503Z,215.53
2019-01-20T07:34:48.795Z,219.93
2019-01-20T07:37:19.290Z,229.07
2019-01-20T07:39:49.546Z,205.43
2019-01-20T07:42:19.839Z,194.83
2019-01-20T07:44:50.106Z,200.20
2019-01-20T07:47:20.453Z,207.90
2019-01-20T07:49:50.758Z,195.63
2019-01-20T07:52:21.106Z,194.57
2019-01-20T07:54:51.384Z,190.10
2019-01-20T07:57:21.704Z,171.10
2019-01-20T07:59:52.030Z,169.93
2019-01-20T08:02:22.374Z,152.13
2019-01-20T08:04:52.708Z,141.07
2019-01-20T08:07:23.020Z,143.43
2019-01-20T08:09:53.320Z,136.80
2019-01-20T08:12:23.764Z,138.90
2019-01-20T08:14:54.054Z,146.07
2019-01-20T08:17:24.298Z,145.07
2019-01-20T08:19:55.578Z,146.57
2019-01-20T08:22:25.812Z,154.10
2019-01-20T08:24:56.371Z,153.00
2019-01-20T08:27:26.702Z,164.37
2019-01-20T08:29:56.947Z,162.30
2019-01-20T08:32:27.224Z,166.97
2019-01-20T08:34:57.535Z,172.13
2019-01-20T08:37:28.904Z,172.03
2019-01-20T08:39:59.287Z,176.03
2019-01-20T08:42:29.698Z,170.70
2019-01-20T08:45:00.018Z,175.50
2019-01-20T08:47:38.044Z,170.97
2019-01-20T08:50:11.786Z,165.47
2019-01-20T08:52:42.054Z,166.73
2019-01-20T08:55:12.361Z,170.13
2019-01-20T08:57:42.547Z,170.97
2019-01-20T09:00:17.338Z,174.70
2019-01-20T09:02:48.051Z,167.10
2019-01-20T09:05:18.584Z,161.83
2019-01-20T09:07:48.887Z,157.87
2019-01-20T09:10:22.379Z,164.57
2019-01-20T09:12:52.916Z,168.50
2019-01-20T09:15:23.318Z,158.97
2019-01-20T09:17:53.691Z,170.10
2019-01-20T09:20:24.003Z,150.57
2019-01-20T09:23:00.051Z,170.90
2019-01-20T09:25:32.065Z,166.30
2019-01-20T09:28:02.345Z,166.77
2019-01-20T09:30:33.077Z,164.13
2019-01-20T09:33:03.330Z,169.03
2019-01-20T09:42:55.775Z,159.80
2019-01-20T09:45:28.891Z,170.03
2019-01-20T09:47:59.209Z,163.97
2019-01-20T09:50:29.523Z,172.47
2019-01-20T09:53:01.990Z,163.97
2019-01-20T09:55:32.233Z,163.33
2019-01-20T09:58:02.862Z,160.63
2019-01-20T10:00:33.504Z,168.73
2019-01-20T10:03:07.595Z,165.37
2019-01-20T10:05:37.883Z,151.27
2019-01-20T10:08:08.172Z,169.90
2019-01-20T10:10:38.457Z,167.90
2019-01-20T10:13:08.814Z,169.07
2019-01-20T10:15:39.155Z,165.03
2019-01-20T10:18:09.676Z,167.87
2019-01-20T10:20:39.972Z,168.90
2019-01-20T10:23:10.335Z,187.20
2019-01-20T10:25:40.651Z,177.97
2019-01-20T10:28:13.291Z,179.57
2019-01-20T10:30:43.743Z,192.13
2019-01-20T10:33:14.031Z,193.87
2019-01-20T10:35:58.207Z,201.83
2019-01-20T10:38:28.739Z,193.77
2019-01-20T10:40:59.235Z,177.80
2019-01-20T10:43:29.549Z,166.40
2019-01-20T10:45:59.818Z,161.10
2019-01-20T10:48:30.167Z,158.10
2019-01-20T10:51:00.590Z,157.73
2019-01-20T10:53:31.099Z,156.57
2019-01-20T10:56:01.663Z,158.20
2019-01-20T10:58:32.019Z,157.73
2019-01-20T11:01:02.788Z,148.53
2019-01-20T11:03:33.174Z,142.30
2019-01-20T11:06:03.583Z,131.23
2019-01-20T11:08:34.078Z,130.40
2019-01-20T11:11:04.606Z,127.47
2019-01-20T11:13:35.011Z,138.17
2019-01-20T11:16:07.194Z,129.23
2019-01-20T11:18:37.565Z,133.83
2019-01-20T11:21:08.181Z,130.87
2019-01-20T11:23:38.671Z,134.07
2019-01-20T11:26:09.043Z,126.40
2019-01-20T11:28:39.361Z,138.27
2019-01-20T11:31:09.688Z,141.63
2019-01-20T11:33:39.964Z,131.47
2019-01-20T11:36:10.386Z,135.53
2019-01-20T11:38:40.684Z,137.37
2019-01-20T11:41:10.946Z,148.27
2019-01-20T11:43:41.190Z,143.77
2019-01-20T11:46:11.532Z,140.90
2019-01-20T11:48:41.788Z,138.10
2019-01-20T11:51:12.017Z,144.93
2019-01-20T11:53:42.347Z,128.17
2019-01-20T11:56:12.774Z,119.67
2019-01-20T11:58:42.926Z,123.63
2019-01-20T12:01:13.270Z,112.33
2019-01-20T12:03:43.698Z,118.93
2019-01-20T12:06:13.976Z,107.87
2019-01-20T12:08:44.270Z,109.57
2019-01-20T12:11:14.607Z,100.27
2019-01-20T12:13:44.881Z,95.20
2019-01-20T12:16:15.262Z,104.63
2019-01-20T12:18:45.654Z,101.40
2019-01-20T12:21:16.047Z,89.27
2019-01-20T12:23:48.226Z,86.30
2019-01-20T12:26:28.286Z,86.37
2019-01-20T12:28:58.593Z,93.93
2019-01-20T12:31:28.874Z,99.27
2019-01-20T12:33:59.155Z,96.87
2019-01-20T12:36:29.494Z,90.57
2019-01-20T12:39:00.244Z,90.47
2019-01-20T12:41:30.795Z,81.80
2019-01-20T12:44:01.072Z,86.00
2019-01-20T12:46:31.370Z,93.30
2019-01-20T12:49:01.669Z,89.30
2019-01-20T12:51:32.088Z,96.33
2019-01-20T12:54:02.318Z,90.80
2019-01-20T12:56:32.749Z,81.37
2019-01-20T12:59:03.013Z,85.07
2019-01-20T13:01:36.416Z,78.00
2019-01-20T13:04:06.919Z,79.07
2019-01-20T13:06:37.302Z,85.00
2019-01-20T13:09:09.645Z,74.50
2019-01-20T13:11:40.051Z,79.00
2019-01-20T13:14:10.342Z,79.30
2019-01-20T13:16:40.632Z,78.10
2019-01-20T13:19:10.924Z,77.93
2019-01-20T13:21:41.223Z,79.60
2019-01-20T13:24:11.552Z,80.77
2019-01-20T13:26:41.866Z,83.20
2019-01-20T13:29:12.043Z,85.43
2019-01-20T13:31:42.510Z,86.83
2019-01-20T13:34:12.775Z,83.23
2019-01-20T13:36:43.127Z,87.70
2019-01-20T13:39:14.672Z,87.87
2019-01-20T13:41:44.957Z,86.67
2019-01-20T13:44:15.276Z,91.33
2019-01-20T13:46:46.437Z,101.67
2019-01-20T13:49:16.735Z,81.80
2019-01-20T13:51:46.981Z,84.13
2019-01-20T13:54:17.285Z,85.23
2019-01-20T13:56:47.538Z,91.73
2019-01-20T13:59:17.871Z,87.43
2019-01-20T14:01:48.423Z,77.20
2019-01-20T14:04:18.751Z,86.67
2019-01-20T14:06:49.049Z,84.67
2019-01-20T14:09:19.307Z,84.47
2019-01-20T14:11:50.083Z,72.37
2019-01-20T14:14:20.383Z,80.67
2019-01-20T14:16:50.649Z,61.03
2019-01-20T14:19:21.884Z,65.73
2019-01-20T14:21:52.259Z,70.20
2019-01-20T14:24:22.631Z,70.50
2019-01-20T14:26:52.966Z,67.23
2019-01-20T14:29:23.307Z,63.57
2019-01-20T14:31:53.681Z,75.87
2019-01-20T14:34:23.989Z,67.70
2019-01-20T14:36:54.241Z,71.70
2019-01-20T14:39:25.045Z,75.97
2019-01-20T14:41:55.209Z,66.73
2019-01-20T14:44:25.807Z,72.87
2019-01-20T14:46:56.149Z,79.90
2019-01-20T14:49:26.498Z,71.07
2019-01-20T14:51:56.783Z,71.23
2019-01-20T14:54:27.091Z,66.30
2019-01-20T14:56:57.475Z,71.83
2019-01-20T14:59:29.495Z,71.60
2019-01-20T15:01:59.803Z,75.23
2019-01-20T15:04:30.216Z,68.60
2019-01-20T15:07:00.498Z,72.07
2019-01-20T15:09:30.855Z,75.87
2019-01-20T15:12:01.171Z,82.23
2019-01-20T15:14:31.531Z,76.20
2019-01-20T15:17:01.843Z,71.33
2019-01-20T15:19:32.197Z,75.80
2019-01-20T15:22:02.533Z,74.80
2019-01-20T15:24:32.944Z,74.13
2019-01-20T15:27:03.238Z,77.73
2019-01-20T15:29:33.629Z,71.30
2019-01-20T15:32:03.974Z,76.40
2019-01-20T15:34:34.314Z,77.93
2019-01-20T15:37:04.881Z,74.77
2019-01-20T15:39:35.346Z,78.37
2019-01-20T15:42:05.905Z,80.80
2019-01-20T15:44:38.891Z,72.07
2019-01-20T15:47:09.367Z,77.73
2019-01-20T15:49:39.742Z,85.40
2019-01-20T15:52:10.134Z,79.07
2019-01-20T15:54:40.366Z,77.27
2019-01-20T15:57:10.652Z,79.47
2019-01-20T15:59:40.927Z,75.20
2019-01-20T16:02:11.368Z,69.70
2019-01-20T16:04:41.722Z,68.73
2019-01-20T16:07:11.956Z,69.10
2019-01-20T16:09:42.301Z,70.53
2019-01-20T16:12:12.675Z,74.00
2019-01-20T16:14:44.594Z,81.67
2019-01-20T16:17:15.156Z,82.50
2019-01-20T16:19:49.260Z,84.13
2019-01-20T16:22:19.986Z,63.00
2019-01-20T16:24:51.427Z,67.53
2019-01-20T16:27:21.880Z,67.77
2019-01-20T16:29:57.194Z,81.17
2019-01-20T16:32:27.521Z,82.07
2019-01-20T16:34:57.804Z,84.67
2019-01-20T16:37:28.087Z,74.50
2019-01-20T16:39:58.410Z,74.67
2019-01-20T16:42:28.657Z,74.03
2019-01-20T16:45:01.079Z,72.77
2019-01-20T16:47:31.449Z,68.30
2019-01-20T16:50:01.843Z,71.93
2019-01-20T16:52:32.336Z,67.50
2019-01-20T16:55:02.613Z,64.00
2019-01-20T16:57:32.937Z,63.77
2019-01-20T17:00:03.334Z,47.67
2019-01-20T17:02:34.282Z,57.03
2019-01-20T17:05:05.840Z,55.23
2019-01-20T17:07:36.172Z,57.20
2019-01-20T17:10:10.301Z,70.27
2019-01-20T17:12:40.805Z,51.73
2019-01-20T17:15:13.719Z,64.37
2019-01-20T17:17:44.003Z,63.70
2019-01-20T17:20:16.445Z,56.53
2019-01-20T17:22:47.133Z,62.67
2019-01-20T17:25:18.541Z,58.17
2019-01-20T17:27:48.826Z,61.93
2019-01-20T17:30:21.343Z,60.43
2019-01-20T17:32:51.698Z,54.87
2019-01-20T17:35:23.113Z,52.43
2019-01-20T17:37:53.634Z,60.70
2019-01-20T17:40:25.502Z,60.80
2019-01-20T17:42:56.276Z,62.13
2019-01-20T17:45:29.191Z,57.57
2019-01-20T17:47:59.695Z,55.83
2019-01-20T17:50:32.377Z,48.97
2019-01-20T17:53:02.951Z,65.50
2019-01-20T17:55:38.432Z,65.20
2019-01-20T17:58:08.743Z,62.37
2019-01-20T18:00:48.361Z,60.63
2019-01-20T18:03:18.766Z,62.60
2019-01-20T18:05:49.243Z,63.03
2019-01-20T18:08:19.600Z,59.73
2019-01-20T18:10:49.835Z,66.20
2019-01-20T18:13:21.665Z,59.67
2019-01-20T18:15:54.581Z,61.40
2019-01-20T18:21:11.306Z,64.30
2019-01-20T18:23:41.621Z,62.73
2019-01-20T18:28:54.231Z,59.90
2019-01-20T18:31:30.790Z,67.73
2019-01-20T18:34:01.185Z,66.73
2019-01-20T18:36:31.605Z,61.93
2019-01-20T18:39:08.445Z,66.50
2019-01-20T18:41:39.416Z,66.63
2019-01-20T18:44:13.757Z,66.63
2019-01-20T18:46:44.139Z,61.90
2019-01-20T18:49:14.441Z,66.17
2019-01-20T18:51:44.996Z,66.40
2019-01-20T18:54:15.348Z,69.07
2019-01-20T18:56:45.645Z,64.10
2019-01-20T18:59:15.973Z,68.90
2019-01-20T19:01:46.259Z,64.83
2019-01-20T19:04:16.718Z,68.83
2019-01-20T19:06:47.112Z,66.20
2019-01-20T19:12:05.389Z,67.57
2019-01-20T19:14:35.893Z,74.07
2019-01-20T19:17:06.281Z,76.43
2019-01-20T19:19:36.621Z,76.33
2019-01-20T19:22:07.115Z,67.93
2019-01-20T19:24:37.419Z,78.20
2019-01-20T19:27:07.864Z,76.40
2019-01-20T19:29:41.008Z,81.40
2019-01-20T19:32:11.336Z,76.07
2019-01-20T19:34:42.762Z,86.97
2019-01-20T19:37:13.057Z,78.90
2019-01-20T19:39:50.375Z,85.07
2019-01-20T19:42:15.490Z,82.53
2019-01-20T19:44:45.954Z,89.97
2019-01-20T19:47:16.306Z,91.10
2019-01-20T19:49:46.643Z,94.07
2019-01-20T19:52:16.921Z,88.93
2019-01-20T19:54:47.325Z,100.47
2019-01-20T19:57:17.603Z,98.60
2019-01-20T19:59:47.922Z,99.97
2019-01-20T20:02:18.203Z,96.40
2019-01-20T20:04:48.578Z,99.47
2019-01-20T20:07:19.415Z,96.30
2019-01-20T20:09:49.668Z,94.20
2019-01-20T20:12:20.107Z,112.93
2019-01-20T20:14:50.489Z,100.13
2019-01-20T20:17:20.759Z,101.53
2019-01-20T20:25:39.194Z,100.30
2019-01-20T20:28:09.639Z,99.70
2019-01-20T20:30:40.028Z,108.43
2019-01-20T20:33:09.831Z,99.60
2019-01-20T20:35:40.098Z,97.73
2019-01-20T20:38:10.441Z,93.87
2019-01-20T20:40:40.830Z,106.43
2019-01-20T20:43:11.050Z,107.60
2019-01-20T20:45:41.421Z,109.80
2019-01-20T20:48:11.810Z,100.23
2019-01-20T20:50:42.168Z,107.50
2019-01-20T20:53:12.597Z,101.50
2019-01-20T20:55:42.963Z,108.43
2019-01-20T20:58:17.135Z,110.87
2019-01-20T21:03:58.843Z,106.03
2019-01-20T21:06:31.759Z,108.87
2019-01-20T21:09:02.174Z,106.90
2019-01-20T21:11:34.116Z,112.63
2019-01-20T21:14:05.480Z,111.27
2019-01-20T21:16:38.021Z,107.70
2019-01-20T21:19:07.657Z,116.40
2019-01-20T21:21:37.961Z,119.03
2019-01-20T21:24:08.290Z,112.93
2019-01-20T21:26:38.624Z,120.03
2019-01-20T21:29:08.959Z,110.90
2019-01-20T21:31:39.288Z,113.60
2019-01-20T21:34:09.614Z,118.73
2019-01-20T21:36:40.025Z,126.83
2019-01-20T21:39:10.447Z,128.03
2019-01-20T21:41:41.003Z,127.97
2019-01-20T21:44:11.249Z,119.43
2019-01-20T21:46:45.390Z,138.23
2019-01-20T21:49:15.295Z,134.43
2019-01-20T21:51:45.582Z,142.37
2019-01-20T21:54:15.872Z,139.47
2019-01-20T21:56:46.519Z,143.77
2019-01-20T21:59:16.777Z,133.27
2019-01-20T22:01:47.108Z,134.80
2019-01-20T22:04:17.402Z,132.70
2019-01-20T22:06:50.721Z,138.13
2019-01-20T22:09:21.019Z,131.10
2019-01-20T22:11:53.591Z,126.73
2019-01-20T22:14:24.889Z,138.40
2019-01-20T22:16:55.126Z,134.00
2019-01-20T22:19:26.516Z,136.33
2019-01-20T22:21:56.815Z,122.00
2019-01-20T22:24:27.061Z,144.77
2019-01-20T22:26:57.601Z,133.43
2019-01-20T22:29:28.195Z,134.87
2019-01-20T22:31:58.453Z,134.87
2019-01-20T22:34:28.823Z,135.33
2019-01-20T22:36:59.101Z,137.43
2019-01-20T22:39:29.654Z,122.53
2019-01-20T22:41:59.915Z,127.73
2019-01-20T22:44:30.135Z,131.27
2019-01-20T22:47:00.621Z,129.60
2019-01-20T22:49:30.891Z,129.57
2019-01-20T22:52:01.162Z,120.73
2019-01-20T22:54:31.456Z,130.70
2019-01-20T22:57:01.707Z,127.37
2019-01-20T22:59:32.062Z,126.17
2019-01-20T23:02:02.405Z,137.17
2019-01-20T23:04:32.707Z,130.70
2019-01-20T23:07:03.030Z,131.00
2019-01-20T23:09:33.343Z,134.77
2019-01-20T23:12:03.611Z,128.10
2019-01-20T23:14:33.853Z,138.23
2019-01-20T23:17:07.649Z,137.07
2019-01-20T23:19:35.378Z,139.37
2019-01-20T23:22:05.719Z,137.33
2019-01-20T23:24:35.971Z,141.40
2019-01-20T23:27:06.518Z,128.30
2019-01-20T23:29:36.891Z,135.13
2019-01-20T23:32:07.153Z,147.13
2019-01-20T23:34:37.446Z,124.87
2019-01-20T23:37:07.732Z,132.57
2019-01-20T23:39:38.038Z,139.23
2019-01-20T23:42:08.286Z,141.67
2019-01-20T23:44:38.603Z,138.73
2019-01-20T23:47:15.039Z,132.83
2019-01-20T23:49:40.722Z,134.57
2019-01-20T23:52:10.968Z,128.33
2019-01-20T23:54:41.306Z,139.07
2019-01-20T23:57:11.546Z,130.77
2019-01-20T23:59:41.942Z,134.40
